Cottbus, Germany

12:26 PM CET on February 25, 2017 (GMT +0100)
Cottbus | | Change Station

Elev 0 ft 51.78 °N, 14.33 °E | Updated 28 seconds ago

Mostly Cloudy
Mostly Cloudy
40.3 °F
Feels Like 39 °F
N
3.1
Wind Variable Wind from West
Gusts 9.9 mph

Today
High -- | Low -- °F
--% Chance of Precip.
Yesterday
High -- | Low -- °F
Precip. -- in
Pressure 30.18 in
Visibility 6.2 miles
Clouds Scattered Clouds 1900 ft
Mostly Cloudy 21000 ft
Windchill 39 °F
Dew Point 33 °F
Humidity 75%
Rainfall 0.00 in
Snow Depth Not available.
6:56 AM 5:35 PM
Waning Crescent, 2% visible
METAR ETSH 251020Z 24010KT 9999 SCT019 BKN210 05/00 Q1022 BLU+
Pressure 30.18 in
Visibility 6.2 miles
Clouds Scattered Clouds 1900 ft
Mostly Cloudy 21000 ft
Windchill 39 °F
Dew Point 33 °F
Humidity 75%
Rainfall 0.00 in
Snow Depth Not available.
6:56 AM 5:35 PM
Waning Crescent, 2% visible
METAR ETSH 251020Z 24010KT 9999 SCT019 BKN210 05/00 Q1022 BLU+

Get Your Daily Forecast Email!

Thanks for signing up!

Be on the lookout for a verification email in your inbox.

You'll start receiving the daily forecast at 8 AM.

×

10-Day Weather Forecast

×

Almanac

Astronomy

Feb. 25, 2017 Rise Set
Actual Time
Civil Twilight
Nautical Twilight
Astronomical Twilight
Moon
Length of Visible Light
Length of Day
Tomorrow will be .
, % of the Moon is Illuminated

Today's Extremes

Country Highs Country Lows

Community

WunderPhotos

Upload Photos

1,962,540 photos uploaded!

WunderBlog® & News

Nearby

Air Quality

  Air Quality AQ Index Pollutant
Not available.

Snow Depth

Station Depth Elevation

Earthquake Activity

City Distance Mag. Time & Date
Minimum magnitude displayed is 2.5.

Coastal Water Temperatures

Place Temperature

Stations

Nearby Weather Stations

Station Location Temp. Windchill Dew Point Humidity Wind Precip. Elev Updated Type